Terminal Aerodrome Forecast
Issued by NWS Grand Junction, CO

Home | Current Version | Previous Version | Text Only | Print | Product List | Glossary On
Versions: 1 2 3 4 5 6 7 8 9 10 11 12 13 14 15 16 17 18 19 20 21 22 23 24 25 26 27 28
000
FTUS45 KGJT 240520
TAFGJT
TAF
KGJT 240520Z 2406/2506 15009KT P6SM SCT110 SCT180
     FM240900 12012KT P6SM SCT120 BKN150
     FM241900 19009KT P6SM VCTS SCT090CB BKN120
     FM250000 12012G18KT P6SM VCTS BKN100CB BKN150=

USA.gov is the U.S. government's official web portal to all federal, state and local government web resources and services.